Time;durP1;ratioP1;P1;durP2;ratioP2;P2;SDS_P1;SDS_P2;PMS_P1;PMS_P2;Temp;Humidity;BMP_temperature;BMP_pressure;BME280_temperature;BME280_humidity;BME280_pressure;Samples;Min_cycle;Max_cycle;Signal;HPM_P1;HPM_P2
2024/03/04 00:00:59;;;;;;;60.70;37.67;;;;;;;;;;5075530;28;20476;-71
2024/03/04 00:03:26;;;;;;;53.07;37.00;;;;;;;;;;5080835;28;20494;-71
2024/03/04 00:05:52;;;;;;;59.27;37.80;;;;;;;;;;5077409;28;20909;-70
2024/03/04 00:08:19;;;;;;;57.97;36.43;;;;;;;;;;5079615;28;20457;-70
2024/03/04 00:10:45;;;;;;;53.90;36.63;;;;;;;;;;5082783;28;20479;-70
2024/03/04 00:13:13;;;;;;;54.70;35.97;;;;;;;;;;5081114;28;20563;-70
2024/03/04 00:15:39;;;;;;;59.27;37.90;;;;;;;;;;5081518;28;20473;-71
2024/03/04 00:18:06;;;;;;;61.70;36.90;;;;;;;;;;5085515;28;20492;-68
2024/03/04 00:20:33;;;;;;;61.03;38.50;;;;;;;;;;5084142;28;20450;-70
2024/03/04 00:23:00;;;;;;;60.23;37.20;;;;;;;;;;5082974;28;20447;-70
2024/03/04 00:25:26;;;;;;;57.40;35.77;;;;;;;;;;5083135;28;20467;-69
2024/03/04 00:27:52;;;;;;;54.90;35.83;;;;;;;;;;5081374;28;20723;-70
2024/03/04 00:30:20;;;;;;;59.60;38.67;;;;;;;;;;5080362;28;20583;-70
2024/03/04 00:32:47;;;;;;;52.57;36.90;;;;;;;;;;5082166;28;20865;-70
2024/03/04 00:35:15;;;;;;;57.60;37.70;;;;;;;;;;5080387;28;20519;-70
2024/03/04 00:37:42;;;;;;;54.30;35.40;;;;;;;;;;5075528;28;21009;-70
2024/03/04 00:40:09;;;;;;;58.13;37.43;;;;;;;;;;5082841;28;20462;-68
2024/03/04 00:42:37;;;;;;;60.60;37.03;;;;;;;;;;5081589;28;20452;-69
2024/03/04 00:45:05;;;;;;;58.83;37.00;;;;;;;;;;5070831;28;20452;-69
2024/03/04 00:47:33;;;;;;;57.57;35.47;;;;;;;;;;5074420;28;20550;-69
2024/03/04 00:49:59;;;;;;;63.20;38.03;;;;;;;;;;5077120;28;20459;-68
2024/03/04 00:52:25;;;;;;;62.73;38.83;;;;;;;;;;5078689;28;20910;-69
2024/03/04 00:54:52;;;;;;;64.67;39.87;;;;;;;;;;5077599;28;20476;-69
2024/03/04 00:57:19;;;;;;;63.63;36.37;;;;;;;;;;5078343;28;20496;-68
2024/03/04 00:59:45;;;;;;;64.03;38.80;;;;;;;;;;5074344;28;20827;-69
2024/03/04 01:02:12;;;;;;;66.80;39.80;;;;;;;;;;5075617;28;21049;-69
2024/03/04 01:04:40;;;;;;;63.97;39.87;;;;;;;;;;5073045;28;20535;-68
2024/03/04 01:07:06;;;;;;;63.53;38.30;;;;;;;;;;5076569;28;20445;-69
2024/03/04 01:09:33;;;;;;;61.97;39.67;;;;;;;;;;5078474;28;20456;-70
2024/03/04 01:12:00;;;;;;;58.83;37.47;;;;;;;;;;5079299;28;21028;-71
2024/03/04 01:14:27;;;;;;;65.13;38.63;;;;;;;;;;5079948;28;20444;-69
2024/03/04 01:16:53;;;;;;;60.57;37.93;;;;;;;;;;5076003;28;20448;-68
2024/03/04 01:19:20;;;;;;;58.10;37.00;;;;;;;;;;5076912;28;20698;-69
2024/03/04 01:21:48;;;;;;;61.07;37.00;;;;;;;;;;5082304;28;20468;-69
2024/03/04 01:24:17;;;;;;;59.80;36.37;;;;;;;;;;5081183;28;20531;-69
2024/03/04 01:26:44;;;;;;;58.07;36.20;;;;;;;;;;5076732;28;20455;-70
2024/03/04 01:29:10;;;;;;;55.33;34.40;;;;;;;;;;5078271;28;20524;-70
2024/03/04 01:31:36;;;;;;;56.50;35.27;;;;;;;;;;5078298;28;20511;-71
2024/03/04 01:34:04;;;;;;;59.90;37.07;;;;;;;;;;5080516;28;20456;-71
2024/03/04 01:36:30;;;;;;;58.87;36.20;;;;;;;;;;5079617;28;20521;-70
2024/03/04 01:38:58;;;;;;;56.07;36.53;;;;;;;;;;5077494;28;20487;-70
2024/03/04 01:41:25;;;;;;;61.47;35.83;;;;;;;;;;5077474;28;20440;-70
2024/03/04 01:43:51;;;;;;;54.07;35.17;;;;;;;;;;5077196;28;20468;-71
2024/03/04 01:46:20;;;;;;;58.70;36.20;;;;;;;;;;5078051;28;20464;-70
2024/03/04 01:48:46;;;;;;;61.57;38.43;;;;;;;;;;5078499;28;20464;-69
2024/03/04 01:51:13;;;;;;;56.47;36.27;;;;;;;;;;5083925;28;20514;-70
2024/03/04 01:53:41;;;;;;;53.50;36.20;;;;;;;;;;5071770;28;20457;-70
2024/03/04 01:56:09;;;;;;;57.17;35.17;;;;;;;;;;5074922;28;20450;-71
2024/03/04 01:58:40;;;;;;;56.60;35.80;;;;;;;;;;5072752;28;20524;-70
2024/03/04 02:01:06;;;;;;;52.73;35.37;;;;;;;;;;5081013;28;20475;-70
2024/03/04 02:03:35;;;;;;;56.87;37.43;;;;;;;;;;5081677;28;20475;-69
2024/03/04 02:06:03;;;;;;;60.30;37.03;;;;;;;;;;5078785;28;20448;-69
2024/03/04 02:08:30;;;;;;;64.77;40.97;;;;;;;;;;5080279;28;20555;-70
2024/03/04 02:10:56;;;;;;;62.73;38.53;;;;;;;;;;5084858;28;20548;-69
2024/03/04 02:13:25;;;;;;;63.20;39.10;;;;;;;;;;5080249;28;20522;-69
2024/03/04 02:15:51;;;;;;;64.80;39.90;;;;;;;;;;5080651;28;20456;-71
2024/03/04 02:18:20;;;;;;;61.87;38.37;;;;;;;;;;5082954;28;20463;-70
2024/03/04 02:20:47;;;;;;;61.00;38.80;;;;;;;;;;5076623;28;20447;-71
2024/03/04 02:23:15;;;;;;;62.13;38.53;;;;;;;;;;5080053;28;20455;-71
2024/03/04 02:25:51;;;;;;;63.57;39.67;;;;;;;;;;5082275;28;20571;-71
2024/03/04 02:28:18;;;;;;;64.30;38.37;;;;;;;;;;5087384;28;20476;-71
2024/03/04 02:30:45;;;;;;;61.90;39.00;;;;;;;;;;5083923;28;20489;-70
2024/03/04 02:33:12;;;;;;;64.17;38.80;;;;;;;;;;5080500;28;20479;-71
2024/03/04 02:35:40;;;;;;;59.07;36.93;;;;;;;;;;5078347;28;20521;-70
2024/03/04 02:38:06;;;;;;;63.57;40.60;;;;;;;;;;5087874;28;20478;-70
2024/03/04 02:40:35;;;;;;;68.33;39.50;;;;;;;;;;5078649;28;20513;-70
2024/03/04 02:43:03;;;;;;;59.90;38.10;;;;;;;;;;5082120;28;20898;-70
2024/03/04 02:45:30;;;;;;;65.90;41.03;;;;;;;;;;5073135;28;20480;-70
2024/03/04 02:47:56;;;;;;;64.30;39.93;;;;;;;;;;5079556;28;20498;-70
2024/03/04 02:50:22;;;;;;;60.83;36.40;;;;;;;;;;5084437;28;20486;-70
2024/03/04 02:52:51;;;;;;;58.90;37.93;;;;;;;;;;5075515;28;20519;-71
2024/03/04 02:55:17;;;;;;;58.60;36.20;;;;;;;;;;5077678;28;20473;-71
2024/03/04 02:57:45;;;;;;;54.53;34.10;;;;;;;;;;5071792;28;20511;-70
2024/03/04 03:00:12;;;;;;;51.50;33.93;;;;;;;;;;5056960;28;20480;-70
2024/03/04 03:02:38;;;;;;;53.03;34.30;;;;;;;;;;5065792;28;20474;-70
2024/03/04 03:05:05;;;;;;;58.70;35.03;;;;;;;;;;5065222;28;20531;-70
2024/03/04 03:07:32;;;;;;;56.20;37.17;;;;;;;;;;5066232;28;20459;-70
2024/03/04 03:09:58;;;;;;;59.33;37.30;;;;;;;;;;5053746;28;20990;-70
2024/03/04 03:12:25;;;;;;;61.47;38.07;;;;;;;;;;5057374;28;20484;-71
2024/03/04 03:14:52;;;;;;;59.10;36.27;;;;;;;;;;5069229;28;20459;-71
2024/03/04 03:17:20;;;;;;;60.03;36.70;;;;;;;;;;5059723;28;20477;-71
2024/03/04 03:19:46;;;;;;;55.30;35.80;;;;;;;;;;5063400;28;20519;-70
2024/03/04 03:22:13;;;;;;;59.10;37.50;;;;;;;;;;5063622;28;20468;-70
2024/03/04 03:24:41;;;;;;;65.27;38.03;;;;;;;;;;5052308;28;21161;-70
2024/03/04 03:27:07;;;;;;;68.10;40.27;;;;;;;;;;5059749;28;20894;-69
2024/03/04 03:29:33;;;;;;;63.63;39.80;;;;;;;;;;5066472;28;20511;-69
2024/03/04 03:32:01;;;;;;;57.67;38.20;;;;;;;;;;5059487;28;20515;-70
2024/03/04 03:34:28;;;;;;;53.43;34.80;;;;;;;;;;5061304;28;20445;-70
2024/03/04 03:36:54;;;;;;;61.70;38.30;;;;;;;;;;5058088;28;20477;-69
2024/03/04 03:39:20;;;;;;;57.90;37.00;;;;;;;;;;5067892;28;20464;-68
2024/03/04 03:41:47;;;;;;;62.70;39.20;;;;;;;;;;5063428;28;20439;-69
2024/03/04 03:44:13;;;;;;;67.70;39.93;;;;;;;;;;5070471;28;20484;-69
2024/03/04 03:46:40;;;;;;;65.17;40.00;;;;;;;;;;5056597;28;20460;-70
2024/03/04 03:49:07;;;;;;;51.87;35.80;;;;;;;;;;5067654;28;20498;-70
2024/03/04 03:51:34;;;;;;;56.30;35.40;;;;;;;;;;5068836;28;20559;-70
2024/03/04 03:54:00;;;;;;;60.33;37.70;;;;;;;;;;5061231;28;20487;-69
2024/03/04 03:56:27;;;;;;;56.20;39.20;;;;;;;;;;5058759;28;20441;-70
2024/03/04 03:58:53;;;;;;;58.50;37.57;;;;;;;;;;5083732;28;20527;-69
2024/03/04 04:01:19;;;;;;;61.30;36.90;;;;;;;;;;5084709;28;20486;-69
2024/03/04 04:03:46;;;;;;;59.80;36.50;;;;;;;;;;5082482;28;20469;-69
2024/03/04 04:06:13;;;;;;;57.57;35.70;;;;;;;;;;5076497;28;20479;-69
2024/03/04 04:08:40;;;;;;;59.57;35.67;;;;;;;;;;5078674;28;20494;-69
2024/03/04 04:11:07;;;;;;;60.13;36.80;;;;;;;;;;5075489;28;20522;-70
2024/03/04 04:13:33;;;;;;;58.87;37.23;;;;;;;;;;5077934;28;20483;-69
2024/03/04 04:15:59;;;;;;;61.60;37.47;;;;;;;;;;5073547;28;20491;-69
2024/03/04 04:18:26;;;;;;;53.80;34.80;;;;;;;;;;5078768;28;20488;-69
2024/03/04 04:20:52;;;;;;;57.50;36.07;;;;;;;;;;5079387;28;20484;-70
2024/03/04 04:23:20;;;;;;;56.47;36.07;;;;;;;;;;5081868;28;20452;-70
2024/03/04 04:25:46;;;;;;;60.17;36.10;;;;;;;;;;5072661;28;20509;-71
2024/03/04 04:28:13;;;;;;;59.53;36.93;;;;;;;;;;5082950;28;20781;-69
2024/03/04 04:30:40;;;;;;;55.67;35.57;;;;;;;;;;5078810;28;20475;-68
2024/03/04 04:33:06;;;;;;;56.73;35.90;;;;;;;;;;5075768;28;20535;-68
2024/03/04 04:35:32;;;;;;;55.03;36.97;;;;;;;;;;5078309;28;20491;-68
2024/03/04 04:37:59;;;;;;;58.27;37.10;;;;;;;;;;5073913;28;20558;-69
2024/03/04 04:40:27;;;;;;;53.90;35.37;;;;;;;;;;5078725;28;20483;-69
2024/03/04 04:42:54;;;;;;;52.70;34.70;;;;;;;;;;5077945;28;20478;-69
2024/03/04 04:45:22;;;;;;;60.90;36.10;;;;;;;;;;5077915;28;20444;-69
2024/03/04 04:47:49;;;;;;;54.57;34.27;;;;;;;;;;5078356;28;20471;-70
2024/03/04 04:50:16;;;;;;;58.30;34.50;;;;;;;;;;5076799;28;20447;-70
2024/03/04 04:52:42;;;;;;;58.00;36.30;;;;;;;;;;5076070;28;20592;-70
2024/03/04 04:55:09;;;;;;;58.20;37.60;;;;;;;;;;5077848;28;20475;-69
2024/03/04 04:57:37;;;;;;;58.37;37.10;;;;;;;;;;5079323;28;20510;-69
2024/03/04 05:00:04;;;;;;;52.90;36.07;;;;;;;;;;5078097;28;20500;-69
2024/03/04 05:02:30;;;;;;;59.43;36.60;;;;;;;;;;5076588;28;20482;-69
2024/03/04 05:04:56;;;;;;;54.03;36.87;;;;;;;;;;5078778;28;20467;-69
2024/03/04 05:07:23;;;;;;;55.17;35.43;;;;;;;;;;5078713;28;20492;-70
2024/03/04 05:09:49;;;;;;;58.87;36.67;;;;;;;;;;5077339;28;20498;-69
2024/03/04 05:12:16;;;;;;;59.20;37.33;;;;;;;;;;5072401;28;20555;-69
2024/03/04 05:14:44;;;;;;;59.37;36.60;;;;;;;;;;5075552;28;20464;-70
2024/03/04 05:17:11;;;;;;;64.37;37.17;;;;;;;;;;5075759;28;20476;-69
2024/03/04 05:19:37;;;;;;;56.90;36.60;;;;;;;;;;5079913;28;20486;-69
2024/03/04 05:22:05;;;;;;;63.77;37.60;;;;;;;;;;5082321;28;20448;-69
2024/03/04 05:24:32;;;;;;;62.57;37.23;;;;;;;;;;5074296;28;20452;-69
2024/03/04 05:26:58;;;;;;;59.27;37.67;;;;;;;;;;5075999;28;20452;-68
2024/03/04 05:29:24;;;;;;;65.57;39.00;;;;;;;;;;5074705;28;20463;-69
2024/03/04 05:31:56;;;;;;;55.77;36.60;;;;;;;;;;5079504;28;20525;-70
2024/03/04 05:34:24;;;;;;;66.13;38.40;;;;;;;;;;5075259;28;20812;-70
2024/03/04 05:36:50;;;;;;;60.60;36.30;;;;;;;;;;5070649;28;20461;-69
2024/03/04 05:39:20;;;;;;;62.13;36.20;;;;;;;;;;5073414;28;20511;-68
2024/03/04 05:41:47;;;;;;;69.07;38.90;;;;;;;;;;5081219;28;20455;-68
2024/03/04 05:44:15;;;;;;;67.03;40.33;;;;;;;;;;5077547;28;20468;-69
2024/03/04 05:46:41;;;;;;;65.50;39.27;;;;;;;;;;5075267;28;20468;-69
2024/03/04 05:49:10;;;;;;;62.70;40.57;;;;;;;;;;5075424;28;20475;-69
2024/03/04 05:51:40;;;;;;;60.77;38.87;;;;;;;;;;5075862;28;20464;-69
2024/03/04 05:54:06;;;;;;;59.13;36.03;;;;;;;;;;5078763;28;20462;-69
2024/03/04 05:56:33;;;;;;;60.40;34.10;;;;;;;;;;5070686;28;20458;-68
2024/03/04 05:58:59;;;;;;;64.63;35.87;;;;;;;;;;5056734;28;20939;-69
2024/03/04 06:01:26;;;;;;;55.43;33.80;;;;;;;;;;5061438;28;21171;-68
2024/03/04 06:03:52;;;;;;;57.90;37.37;;;;;;;;;;5057523;28;20512;-68
2024/03/04 06:06:20;;;;;;;59.37;36.60;;;;;;;;;;5056485;28;20467;-69
2024/03/04 06:08:46;;;;;;;60.23;35.83;;;;;;;;;;5060910;28;20493;-69
2024/03/04 06:11:13;;;;;;;56.00;34.47;;;;;;;;;;5055137;28;20480;-69
2024/03/04 06:13:39;;;;;;;60.23;35.30;;;;;;;;;;5045946;28;20575;-70
2024/03/04 06:16:06;;;;;;;58.77;35.33;;;;;;;;;;5058804;28;20520;-70
2024/03/04 06:18:32;;;;;;;50.33;34.10;;;;;;;;;;5057960;28;20496;-71
2024/03/04 06:20:59;;;;;;;62.07;36.27;;;;;;;;;;5058008;28;20484;-70
2024/03/04 06:23:27;;;;;;;58.00;34.00;;;;;;;;;;5059076;28;20461;-70
2024/03/04 06:25:53;;;;;;;51.77;34.20;;;;;;;;;;5063503;28;20463;-70
2024/03/04 06:28:20;;;;;;;64.13;41.13;;;;;;;;;;5058618;28;20488;-70
2024/03/04 06:30:48;;;;;;;60.17;38.60;;;;;;;;;;5059605;28;20487;-71
2024/03/04 06:33:14;;;;;;;52.10;35.23;;;;;;;;;;5057653;28;20499;-70
2024/03/04 06:35:41;;;;;;;73.83;43.83;;;;;;;;;;5060376;28;20448;-70
2024/03/04 06:38:07;;;;;;;89.10;46.57;;;;;;;;;;5055742;28;20523;-70
2024/03/04 06:40:35;;;;;;;78.13;44.33;;;;;;;;;;5049621;28;20446;-70
2024/03/04 06:43:01;;;;;;;83.00;47.10;;;;;;;;;;5051242;28;20449;-70
2024/03/04 06:45:28;;;;;;;81.83;47.27;;;;;;;;;;5047560;28;20512;-70
2024/03/04 06:47:56;;;;;;;80.83;46.10;;;;;;;;;;5056482;28;20520;-70
2024/03/04 06:50:22;;;;;;;83.40;45.67;;;;;;;;;;5050215;28;20450;-70
2024/03/04 06:52:48;;;;;;;79.23;43.70;;;;;;;;;;5056557;28;20564;-70
2024/03/04 06:55:15;;;;;;;83.90;45.03;;;;;;;;;;5047476;28;20476;-71
2024/03/04 06:57:43;;;;;;;90.33;46.53;;;;;;;;;;5067267;28;20519;-70
2024/03/04 07:00:11;;;;;;;85.70;44.93;;;;;;;;;;5077733;28;20456;-70
2024/03/04 07:02:38;;;;;;;89.33;46.77;;;;;;;;;;5077656;28;20519;-73
2024/03/04 07:05:06;;;;;;;86.80;47.97;;;;;;;;;;5082900;28;20483;-70
2024/03/04 07:07:33;;;;;;;88.80;46.67;;;;;;;;;;5073333;28;20456;-70
2024/03/04 07:10:00;;;;;;;84.20;47.97;;;;;;;;;;5071209;28;20491;-68
2024/03/04 07:12:26;;;;;;;86.30;47.73;;;;;;;;;;5074009;28;20518;-69
2024/03/04 07:14:54;;;;;;;89.50;46.13;;;;;;;;;;5072136;28;20480;-70
2024/03/04 07:17:20;;;;;;;86.90;46.77;;;;;;;;;;5077792;28;20490;-69
2024/03/04 07:19:47;;;;;;;89.77;46.40;;;;;;;;;;5076882;28;21060;-69
2024/03/04 07:22:14;;;;;;;86.37;44.40;;;;;;;;;;5074614;28;20490;-70
2024/03/04 07:24:40;;;;;;;87.67;48.77;;;;;;;;;;5076426;28;20546;-70
2024/03/04 07:27:08;;;;;;;103.33;47.80;;;;;;;;;;5066850;28;20480;-67
2024/03/04 07:29:34;;;;;;;96.57;48.00;;;;;;;;;;5075898;28;20899;-68
2024/03/04 07:32:02;;;;;;;93.80;48.40;;;;;;;;;;5074083;28;20455;-69
2024/03/04 07:34:28;;;;;;;92.50;45.70;;;;;;;;;;5077421;28;20471;-68
2024/03/04 07:36:57;;;;;;;89.63;48.47;;;;;;;;;;5077331;28;20452;-69
2024/03/04 07:39:23;;;;;;;109.57;47.27;;;;;;;;;;5076499;28;20478;-67
2024/03/04 07:41:50;;;;;;;85.07;45.67;;;;;;;;;;5080003;28;20447;-68
2024/03/04 07:44:17;;;;;;;78.47;45.47;;;;;;;;;;5067299;28;20450;-67
2024/03/04 07:46:44;;;;;;;81.87;43.63;;;;;;;;;;5079389;28;20483;-67
2024/03/04 07:49:11;;;;;;;86.13;45.30;;;;;;;;;;5075967;28;20516;-69
2024/03/04 07:51:38;;;;;;;92.53;46.20;;;;;;;;;;5078093;28;20519;-66
2024/03/04 07:54:04;;;;;;;96.73;47.80;;;;;;;;;;5079664;28;20501;-67
2024/03/04 07:56:31;;;;;;;87.97;45.50;;;;;;;;;;5079211;28;20498;-67
2024/03/04 07:58:58;;;;;;;83.43;45.03;;;;;;;;;;5079472;28;20478;-70
2024/03/04 08:01:24;;;;;;;83.07;45.37;;;;;;;;;;5076941;28;20494;-67
2024/03/04 08:03:50;;;;;;;80.13;44.37;;;;;;;;;;5074560;28;20449;-70
2024/03/04 08:06:20;;;;;;;82.40;45.07;;;;;;;;;;5079466;28;20964;-69
2024/03/04 08:08:48;;;;;;;91.10;45.63;;;;;;;;;;5080069;28;20546;-68
2024/03/04 08:11:14;;;;;;;95.40;49.10;;;;;;;;;;5086704;28;20832;-69
2024/03/04 08:13:41;;;;;;;85.63;45.20;;;;;;;;;;5085608;28;20517;-68
2024/03/04 08:16:07;;;;;;;77.83;44.57;;;;;;;;;;5080285;28;20459;-68
2024/03/04 08:18:33;;;;;;;88.60;44.97;;;;;;;;;;5086607;28;20487;-68
2024/03/04 08:21:00;;;;;;;85.20;44.83;;;;;;;;;;5077228;28;20451;-68
2024/03/04 08:23:28;;;;;;;84.83;44.30;;;;;;;;;;5078674;28;20474;-70
2024/03/04 08:25:54;;;;;;;83.13;45.20;;;;;;;;;;5072509;28;20473;-66
2024/03/04 08:28:22;;;;;;;81.07;45.20;;;;;;;;;;5080012;28;20475;-68
2024/03/04 08:30:48;;;;;;;83.70;44.87;;;;;;;;;;5079572;28;20456;-66
2024/03/04 08:33:16;;;;;;;83.97;42.87;;;;;;;;;;5079554;28;21033;-68
2024/03/04 08:35:43;;;;;;;81.00;43.60;;;;;;;;;;5073202;28;20460;-67
2024/03/04 08:38:10;;;;;;;87.13;45.57;;;;;;;;;;5075500;28;20451;-67
2024/03/04 08:40:38;;;;;;;78.70;44.10;;;;;;;;;;5074124;28;20448;-67
2024/03/04 08:43:04;;;;;;;85.37;44.80;;;;;;;;;;5086904;28;20487;-66
2024/03/04 08:45:31;;;;;;;83.47;43.00;;;;;;;;;;5084314;28;20554;-66
2024/03/04 08:47:57;;;;;;;75.80;42.07;;;;;;;;;;5079200;28;20543;-69
2024/03/04 08:50:23;;;;;;;72.63;42.63;;;;;;;;;;5079816;28;20463;-69
2024/03/04 08:52:50;;;;;;;77.53;43.67;;;;;;;;;;5078973;28;21070;-69
2024/03/04 08:55:17;;;;;;;73.67;42.00;;;;;;;;;;5078959;28;20475;-71
2024/03/04 08:57:44;;;;;;;71.03;40.10;;;;;;;;;;5075184;28;20799;-69
2024/03/04 09:00:12;;;;;;;66.37;40.90;;;;;;;;;;5074578;28;20525;-69
2024/03/04 09:02:38;;;;;;;69.90;41.00;;;;;;;;;;5079063;28;20463;-69
2024/03/04 09:05:08;;;;;;;67.37;39.27;;;;;;;;;;5079416;28;20448;-67
2024/03/04 09:07:34;;;;;;;67.43;39.80;;;;;;;;;;5080675;28;21015;-68
2024/03/04 09:10:01;;;;;;;61.23;38.80;;;;;;;;;;5079200;28;20951;-68
2024/03/04 09:12:28;;;;;;;64.50;39.93;;;;;;;;;;5077434;28;20467;-69
2024/03/04 09:14:56;;;;;;;62.33;39.00;;;;;;;;;;5083250;28;20502;-67
2024/03/04 09:17:22;;;;;;;72.23;39.50;;;;;;;;;;5078397;28;20523;-69
2024/03/04 09:19:49;;;;;;;62.43;37.83;;;;;;;;;;5080106;28;20927;-69
2024/03/04 09:22:16;;;;;;;65.53;39.77;;;;;;;;;;5081654;28;20535;-69
2024/03/04 09:24:43;;;;;;;69.33;38.07;;;;;;;;;;5079504;28;20448;-70
2024/03/04 09:27:09;;;;;;;64.33;37.27;;;;;;;;;;5081467;28;20436;-68
2024/03/04 09:29:36;;;;;;;64.17;37.60;;;;;;;;;;5077960;28;20495;-68
2024/03/04 09:32:04;;;;;;;62.90;38.83;;;;;;;;;;5072638;28;20448;-68
2024/03/04 09:34:30;;;;;;;61.47;38.53;;;;;;;;;;5072993;28;20508;-68
2024/03/04 09:36:56;;;;;;;60.63;36.67;;;;;;;;;;5075625;28;20476;-67
2024/03/04 09:39:23;;;;;;;63.70;39.00;;;;;;;;;;5076258;28;20484;-67
2024/03/04 09:41:49;;;;;;;59.57;38.93;;;;;;;;;;5077944;28;20467;-71
2024/03/04 09:44:16;;;;;;;57.70;37.57;;;;;;;;;;5070270;28;20483;-68
2024/03/04 09:46:43;;;;;;;52.80;36.17;;;;;;;;;;5079809;28;20537;-68
2024/03/04 09:49:12;;;;;;;55.23;33.97;;;;;;;;;;5079231;28;20524;-67
2024/03/04 09:51:38;;;;;;;48.77;34.23;;;;;;;;;;5078144;28;20472;-67
2024/03/04 09:54:05;;;;;;;55.10;34.43;;;;;;;;;;5077430;28;20480;-68
2024/03/04 09:56:32;;;;;;;54.83;34.97;;;;;;;;;;5076884;28;20995;-68
2024/03/04 09:58:58;;;;;;;56.80;35.90;;;;;;;;;;5065764;28;20476;-67
2024/03/04 10:01:26;;;;;;;53.10;35.10;;;;;;;;;;5077692;28;20495;-69
2024/03/04 10:03:52;;;;;;;51.40;34.40;;;;;;;;;;5077624;28;20914;-71
2024/03/04 10:06:20;;;;;;;53.77;34.40;;;;;;;;;;5073754;28;20450;-70
2024/03/04 10:08:47;;;;;;;52.57;34.07;;;;;;;;;;5077674;28;20462;-68
2024/03/04 10:11:13;;;;;;;56.80;35.77;;;;;;;;;;5077965;28;20948;-69
2024/03/04 10:13:41;;;;;;;59.70;34.87;;;;;;;;;;5076335;28;20522;-69
2024/03/04 10:16:09;;;;;;;57.60;36.07;;;;;;;;;;5073951;28;20444;-69
2024/03/04 10:18:35;;;;;;;54.53;31.60;;;;;;;;;;5076246;28;21073;-68
2024/03/04 10:21:02;;;;;;;49.97;33.40;;;;;;;;;;5076908;28;20471;-68
2024/03/04 10:23:29;;;;;;;62.50;36.97;;;;;;;;;;5077789;28;20436;-69
2024/03/04 10:26:08;;;;;;;56.20;36.50;;;;;;;;;;5075115;28;20590;-70
2024/03/04 10:28:36;;;;;;;57.90;37.27;;;;;;;;;;5077728;28;20458;-69
2024/03/04 10:31:07;;;;;;;54.70;35.03;;;;;;;;;;5071657;28;20543;-70
2024/03/04 10:33:33;;;;;;;63.63;36.70;;;;;;;;;;5076227;28;20511;-70
2024/03/04 10:36:12;;;;;;;58.33;34.87;;;;;;;;;;5078477;28;21162;-67
2024/03/04 10:38:41;;;;;;;58.03;35.50;;;;;;;;;;5077961;28;20452;-68
2024/03/04 10:41:14;;;;;;;57.27;36.80;;;;;;;;;;5073166;28;20452;-68
2024/03/04 10:43:40;;;;;;;59.10;36.20;;;;;;;;;;5071480;28;20452;-68
2024/03/04 10:46:07;;;;;;;58.20;38.23;;;;;;;;;;5077704;28;20814;-69
2024/03/04 10:48:34;;;;;;;59.90;37.80;;;;;;;;;;5073460;28;20550;-68
2024/03/04 10:51:01;;;;;;;62.43;36.90;;;;;;;;;;5078980;28;20464;-68
2024/03/04 10:53:27;;;;;;;53.40;34.67;;;;;;;;;;5083141;28;20492;-69
2024/03/04 10:55:59;;;;;;;62.23;36.90;;;;;;;;;;5075983;28;20483;-72
2024/03/04 10:58:27;;;;;;;59.43;36.77;;;;;;;;;;5075445;28;20518;-69
2024/03/04 11:00:54;;;;;;;60.77;36.77;;;;;;;;;;5077462;28;20474;-67
2024/03/04 11:03:22;;;;;;;62.60;36.03;;;;;;;;;;5083119;28;20482;-68
2024/03/04 11:05:51;;;;;;;59.40;35.87;;;;;;;;;;5077704;28;20599;-67
2024/03/04 11:08:20;;;;;;;65.03;38.13;;;;;;;;;;5078947;28;20486;-69
2024/03/04 11:10:48;;;;;;;60.60;36.47;;;;;;;;;;5076024;28;20513;-69
2024/03/04 11:13:18;;;;;;;62.57;36.80;;;;;;;;;;5079242;28;20782;-68
2024/03/04 11:15:48;;;;;;;57.40;37.37;;;;;;;;;;5076127;28;20811;-69
2024/03/04 11:18:15;;;;;;;61.70;36.97;;;;;;;;;;5087807;28;20455;-68
2024/03/04 11:20:46;;;;;;;61.87;37.27;;;;;;;;;;5071585;28;20493;-68
2024/03/04 11:23:13;;;;;;;66.10;35.97;;;;;;;;;;5076588;28;20452;-69
2024/03/04 11:25:39;;;;;;;65.50;36.43;;;;;;;;;;5073485;28;20587;-69
2024/03/04 11:28:07;;;;;;;66.40;36.50;;;;;;;;;;5079027;28;21307;-69
2024/03/04 11:30:37;;;;;;;68.07;39.00;;;;;;;;;;5079840;28;20486;-69
2024/03/04 11:33:18;;;;;;;59.90;37.43;;;;;;;;;;5080448;28;20459;-65
2024/03/04 11:35:45;;;;;;;64.43;36.97;;;;;;;;;;5069395;28;20444;-70
2024/03/04 11:38:12;;;;;;;66.57;37.33;;;;;;;;;;5081499;28;20523;-64
2024/03/04 11:40:38;;;;;;;66.17;38.37;;;;;;;;;;5076646;28;20514;-69
2024/03/04 11:43:05;;;;;;;65.13;37.20;;;;;;;;;;5081998;28;20507;-67
2024/03/04 11:45:32;;;;;;;70.33;39.20;;;;;;;;;;5084480;28;20471;-68
2024/03/04 11:48:00;;;;;;;67.77;39.17;;;;;;;;;;5081932;28;20456;-69
2024/03/04 11:50:42;;;;;;;58.83;37.93;;;;;;;;;;5081435;28;20444;-67
2024/03/04 11:53:20;;;;;;;63.50;36.00;;;;;;;;;;5083334;28;20451;-67
2024/03/04 11:55:47;;;;;;;65.70;36.67;;;;;;;;;;5070293;28;20447;-66
2024/03/04 11:58:13;;;;;;;64.80;37.87;;;;;;;;;;5079301;28;20491;-68
2024/03/04 12:00:40;;;;;;;69.17;35.87;;;;;;;;;;5078277;28;20497;-71
2024/03/04 12:03:09;;;;;;;61.83;36.97;;;;;;;;;;5082505;28;20448;-70
2024/03/04 12:05:38;;;;;;;63.77;35.87;;;;;;;;;;5081383;28;20479;-69
2024/03/04 12:08:04;;;;;;;60.30;35.73;;;;;;;;;;5081952;28;20463;-70
2024/03/04 12:10:33;;;;;;;63.73;35.00;;;;;;;;;;5082839;28;20475;-68
2024/03/04 12:13:00;;;;;;;60.53;33.37;;;;;;;;;;5069691;28;20470;-67
2024/03/04 12:15:26;;;;;;;60.80;36.17;;;;;;;;;;5080628;28;20472;-66
2024/03/04 12:17:53;;;;;;;57.47;34.33;;;;;;;;;;5081960;28;21374;-66
2024/03/04 12:20:21;;;;;;;64.17;35.53;;;;;;;;;;5084111;28;20451;-68
2024/03/04 12:22:47;;;;;;;57.20;35.83;;;;;;;;;;5073330;28;20518;-68
2024/03/04 12:25:13;;;;;;;56.50;31.83;;;;;;;;;;5077282;28;21173;-68
2024/03/04 12:27:40;;;;;;;65.07;36.37;;;;;;;;;;5080204;28;20456;-69
2024/03/04 12:30:11;;;;;;;64.23;33.17;;;;;;;;;;5079725;28;20451;-69
2024/03/04 12:32:38;;;;;;;61.67;33.70;;;;;;;;;;5080393;28;20955;-70
2024/03/04 12:35:14;;;;;;;56.63;32.77;;;;;;;;;;5079875;28;20921;-69
2024/03/04 12:37:43;;;;;;;55.37;31.47;;;;;;;;;;5081490;28;20472;-68
2024/03/04 12:40:10;;;;;;;57.33;32.00;;;;;;;;;;5076848;28;21016;-66
2024/03/04 12:42:36;;;;;;;53.43;32.00;;;;;;;;;;5078165;28;20444;-67
2024/03/04 12:45:04;;;;;;;51.97;32.10;;;;;;;;;;5079003;28;20459;-67
2024/03/04 12:47:31;;;;;;;51.87;31.27;;;;;;;;;;5079928;28;20455;-68
2024/03/04 12:49:57;;;;;;;57.27;32.30;;;;;;;;;;5088254;28;20554;-68
2024/03/04 12:52:23;;;;;;;51.40;30.50;;;;;;;;;;5082646;28;20894;-67
2024/03/04 12:54:51;;;;;;;56.10;32.53;;;;;;;;;;5079406;28;20506;-68
2024/03/04 12:57:17;;;;;;;60.50;34.70;;;;;;;;;;5079445;28;20553;-67
2024/03/04 12:59:44;;;;;;;50.57;30.67;;;;;;;;;;5078147;28;20495;-70
2024/03/04 13:02:11;;;;;;;57.07;33.07;;;;;;;;;;5078292;28;20520;-69
2024/03/04 13:04:37;;;;;;;54.70;30.73;;;;;;;;;;5080048;28;20456;-67
2024/03/04 13:07:04;;;;;;;54.47;31.07;;;;;;;;;;5075310;28;20460;-68
2024/03/04 13:09:30;;;;;;;58.70;33.90;;;;;;;;;;5079527;28;20520;-69
2024/03/04 13:11:58;;;;;;;51.93;32.50;;;;;;;;;;5081485;28;20459;-67
2024/03/04 13:14:24;;;;;;;53.00;32.93;;;;;;;;;;5079058;28;20487;-68
2024/03/04 13:16:51;;;;;;;59.27;33.50;;;;;;;;;;5079309;28;20460;-68
2024/03/04 13:19:18;;;;;;;57.90;33.93;;;;;;;;;;5074750;28;20448;-68
2024/03/04 13:21:44;;;;;;;59.37;34.10;;;;;;;;;;5082801;28;20467;-70
2024/03/04 13:24:10;;;;;;;59.53;32.57;;;;;;;;;;5079895;28;20715;-67
2024/03/04 13:26:40;;;;;;;60.23;32.77;;;;;;;;;;5071670;28;20459;-67
2024/03/04 13:29:10;;;;;;;59.87;32.53;;;;;;;;;;5084767;28;20448;-67
2024/03/04 13:31:36;;;;;;;56.67;31.57;;;;;;;;;;5088662;28;20490;-67
2024/03/04 13:34:03;;;;;;;53.43;30.53;;;;;;;;;;5087839;28;20479;-67
2024/03/04 13:36:29;;;;;;;51.70;31.13;;;;;;;;;;5080160;28;20476;-69
2024/03/04 13:38:56;;;;;;;57.90;30.10;;;;;;;;;;5081207;28;20444;-71
2024/03/04 13:41:22;;;;;;;51.67;30.37;;;;;;;;;;5082421;28;20506;-73
2024/03/04 13:43:48;;;;;;;54.47;31.20;;;;;;;;;;5074842;28;20452;-66
2024/03/04 13:46:16;;;;;;;55.60;31.63;;;;;;;;;;5066525;28;21032;-66
2024/03/04 13:48:43;;;;;;;51.83;29.83;;;;;;;;;;5077053;28;20452;-66
2024/03/04 13:51:09;;;;;;;53.27;31.03;;;;;;;;;;5082174;28;20521;-67
2024/03/04 13:53:37;;;;;;;58.60;32.30;;;;;;;;;;5074474;28;20447;-67
2024/03/04 13:56:03;;;;;;;55.70;29.70;;;;;;;;;;5078602;28;20467;-68
2024/03/04 13:58:30;;;;;;;53.47;31.57;;;;;;;;;;5079430;28;20988;-68
2024/03/04 14:00:57;;;;;;;54.93;31.77;;;;;;;;;;5080023;28;20558;-67
2024/03/04 14:03:24;;;;;;;55.27;31.30;;;;;;;;;;5086900;28;20444;-66
2024/03/04 14:05:51;;;;;;;58.97;31.37;;;;;;;;;;5075339;28;20456;-66
2024/03/04 14:08:17;;;;;;;61.60;30.10;;;;;;;;;;5079959;28;20444;-70
2024/03/04 14:10:44;;;;;;;56.50;31.57;;;;;;;;;;5078500;28;20443;-70
2024/03/04 14:13:13;;;;;;;55.37;32.67;;;;;;;;;;5078294;28;20459;-69
2024/03/04 14:15:39;;;;;;;50.93;30.27;;;;;;;;;;5078034;28;20484;-68